Williamston, Michigan
Current Conditions -  °F | °C
As of 4:55 PM on Wednesday 28 Jan 2015 (Local Time) from KTEW Reporting Station
Broken Clouds Broken Clouds  
Wind Chill: 17°   Ceiling: 12000
Heat Index: 27°   Visibility: 10mi
Dew Point:   Wind: 12mph
Humidity: 44%   Direction: 160°SSE
Pressure: 30.2"   Gusts: NA
Location:  42.69°N, 84.28°W
Report Text: KTEW 282155Z AUTO 16010KT 10SM BKN120 M03/M13 A3020 RMK AO2 T10271134
Loading
Personal Weather Stations






























Interactive Weather Map New forecast layout! Learn more

10-Day Weather Forecast

Advertisements
Track Severe Weather on mobile